createdAt,value
2018-02-22T00:00:11.348Z,-0.14
2018-02-22T00:02:42.418Z,-0.14
2018-02-22T00:05:13.410Z,-0.09
2018-02-22T00:07:44.408Z,-0.07
2018-02-22T00:10:15.396Z,-0.06
2018-02-22T00:12:46.384Z,0.02
2018-02-22T00:15:17.343Z,0.03
2018-02-22T00:17:48.325Z,0.20
2018-02-22T00:20:19.302Z,0.21
2018-02-22T00:22:50.264Z,0.31
2018-02-22T00:25:21.289Z,0.34
2018-02-22T00:27:52.271Z,0.32
2018-02-22T00:30:23.266Z,0.31
2018-02-22T00:32:54.228Z,0.31
2018-02-22T00:35:25.181Z,0.31
2018-02-22T00:37:56.174Z,0.32
2018-02-22T00:40:27.195Z,0.29
2018-02-22T00:42:58.191Z,0.24
2018-02-22T00:45:29.185Z,0.15
2018-02-22T00:48:00.203Z,0.08
2018-02-22T00:50:31.244Z,0.03
2018-02-22T00:53:02.268Z,-0.01
2018-02-22T00:55:33.239Z,-0.16
2018-02-22T00:58:04.257Z,-0.19
2018-02-22T01:00:35.236Z,-0.17
2018-02-22T01:03:06.267Z,-0.24
2018-02-22T01:05:37.221Z,-0.30
2018-02-22T01:08:08.272Z,-0.32
2018-02-22T01:10:39.255Z,-0.26
2018-02-22T01:13:10.237Z,-0.30
2018-02-22T01:15:41.231Z,-0.30
2018-02-22T01:18:12.229Z,-0.26
2018-02-22T01:20:43.191Z,-0.28
2018-02-22T01:23:14.192Z,-0.27
2018-02-22T01:25:45.204Z,-0.33
2018-02-22T01:28:16.195Z,-0.39
2018-02-22T01:30:47.235Z,-0.42
2018-02-22T01:33:18.201Z,-0.57
2018-02-22T01:35:49.219Z,-0.53
2018-02-22T01:38:20.650Z,-0.46
2018-02-22T01:40:51.686Z,-0.51
2018-02-22T01:43:22.712Z,-0.52
2018-02-22T01:45:53.734Z,-0.57
2018-02-22T01:48:24.745Z,-0.70
2018-02-22T01:50:55.788Z,-0.75
2018-02-22T01:53:26.760Z,-0.75
2018-02-22T01:55:57.834Z,-0.79
2018-02-22T01:58:28.831Z,-0.86
2018-02-22T02:00:59.798Z,-0.90
2018-02-22T02:03:30.797Z,-0.94
2018-02-22T02:06:01.770Z,-0.91
2018-02-22T02:08:32.772Z,-0.89
2018-02-22T02:11:03.751Z,-0.98
2018-02-22T02:13:34.731Z,-1.04
2018-02-22T02:16:05.716Z,-1.09
2018-02-22T02:18:36.758Z,-1.10
2018-02-22T02:21:07.805Z,-1.12
2018-02-22T02:23:38.831Z,-1.12
2018-02-22T02:26:09.841Z,-1.05
2018-02-22T02:28:40.827Z,-1.06
2018-02-22T02:31:11.861Z,-1.03
2018-02-22T02:33:42.880Z,-1.07
2018-02-22T02:36:14.459Z,-1.06
2018-02-22T02:38:45.412Z,-1.08
2018-02-22T02:41:16.403Z,-1.09
2018-02-22T02:43:47.358Z,-1.13
2018-02-22T02:46:18.368Z,-1.10
2018-02-22T02:48:49.362Z,-1.13
2018-02-22T02:51:20.348Z,-1.11
2018-02-22T02:53:51.345Z,-1.14
2018-02-22T02:56:22.357Z,-1.19
2018-02-22T02:58:53.351Z,-1.22
2018-02-22T03:01:24.337Z,-1.09
2018-02-22T03:03:55.337Z,-1.18
2018-02-22T03:06:26.377Z,-1.11
2018-02-22T03:08:57.389Z,-1.13
2018-02-22T03:11:28.416Z,-1.21
2018-02-22T03:13:59.419Z,-1.22
2018-02-22T03:16:30.421Z,-1.13
2018-02-22T03:19:01.384Z,-1.14
2018-02-22T03:21:32.381Z,-1.16
2018-02-22T03:24:03.340Z,-1.28
2018-02-22T03:26:34.325Z,-1.33
2018-02-22T03:29:05.375Z,-1.23
2018-02-22T03:31:36.345Z,-1.14
2018-02-22T03:34:07.389Z,-1.05
2018-02-22T03:36:38.386Z,-1.16
2018-02-22T03:39:09.363Z,-1.18
2018-02-22T03:41:40.390Z,-1.22
2018-02-22T03:44:11.343Z,-1.25
2018-02-22T03:46:42.349Z,-1.19
2018-02-22T03:49:13.328Z,-1.14
2018-02-22T03:51:44.346Z,-1.21
2018-02-22T03:54:15.339Z,-1.36
2018-02-22T03:56:46.368Z,-1.42
2018-02-22T03:59:17.380Z,-1.51
2018-02-22T04:01:48.427Z,-1.46
2018-02-22T04:04:19.418Z,-1.48
2018-02-22T04:06:50.426Z,-1.48
2018-02-22T04:09:21.440Z,-1.50
2018-02-22T04:11:52.388Z,-1.47
2018-02-22T04:14:23.395Z,-1.50
2018-02-22T04:16:54.441Z,-1.46
2018-02-22T04:19:25.439Z,-1.53
2018-02-22T04:21:56.447Z,-1.55
2018-02-22T04:24:27.380Z,-1.58
2018-02-22T04:29:36.100Z,-1.70
2018-02-22T04:32:07.114Z,-1.68
2018-02-22T04:34:38.128Z,-1.66
2018-02-22T04:37:09.131Z,-1.70
2018-02-22T04:42:17.848Z,-1.68
2018-02-22T04:44:48.874Z,-1.73
2018-02-22T04:47:19.845Z,-1.76
2018-02-22T04:49:50.829Z,-1.75
2018-02-22T04:52:21.829Z,-1.72
2018-02-22T04:54:52.814Z,-1.67
2018-02-22T04:57:23.846Z,-1.65
2018-02-22T04:59:55.761Z,-1.71
2018-02-22T05:02:26.774Z,-1.77
2018-02-22T05:04:57.744Z,-1.77
2018-02-22T05:07:28.767Z,-1.72
2018-02-22T05:09:59.753Z,-1.76
2018-02-22T05:12:30.749Z,-1.78
2018-02-22T05:15:01.767Z,-1.76
2018-02-22T05:17:32.755Z,-1.74
2018-02-22T05:20:03.788Z,-1.78
2018-02-22T05:22:34.768Z,-1.75
2018-02-22T05:25:05.792Z,-1.78
2018-02-22T05:27:36.754Z,-1.65
2018-02-22T05:30:07.756Z,-1.77
2018-02-22T05:32:38.777Z,-1.76
2018-02-22T05:35:11.469Z,-1.68
2018-02-22T05:37:42.438Z,-1.68
2018-02-22T05:40:13.454Z,-1.62
2018-02-22T05:42:44.493Z,-1.60
2018-02-22T05:45:15.568Z,-1.59
2018-02-22T05:47:46.564Z,-1.58
2018-02-22T05:50:17.555Z,-1.60
2018-02-22T05:52:48.563Z,-1.61
2018-02-22T05:55:19.584Z,-1.60
2018-02-22T05:57:50.652Z,-1.60
2018-02-22T06:00:21.670Z,-1.60
2018-02-22T06:02:52.701Z,-1.59
2018-02-22T06:05:23.754Z,-1.61
2018-02-22T06:07:54.721Z,-1.53
2018-02-22T06:10:25.744Z,-1.48
2018-02-22T06:12:56.759Z,-1.37
2018-02-22T06:15:27.789Z,-1.31
2018-02-22T06:17:58.783Z,-1.26
2018-02-22T06:20:29.806Z,-1.17
2018-02-22T06:23:00.789Z,-1.00
2018-02-22T06:25:31.799Z,-0.94
2018-02-22T06:28:02.794Z,-0.96
2018-02-22T06:30:33.856Z,-1.02
2018-02-22T06:33:04.879Z,-0.94
2018-02-22T06:35:35.883Z,-0.90
2018-02-22T06:38:06.957Z,-0.91
2018-02-22T06:40:37.940Z,-0.82
2018-02-22T06:43:08.946Z,-0.63
2018-02-22T06:45:39.939Z,-0.63
2018-02-22T06:48:10.968Z,-0.58
2018-02-22T06:50:41.965Z,-0.46
2018-02-22T06:53:13.013Z,-0.44
2018-02-22T06:55:43.963Z,-0.50
2018-02-22T07:01:10.996Z,-0.47
2018-02-22T07:03:41.960Z,-0.33
2018-02-22T07:06:12.987Z,-0.09
2018-02-22T07:08:44.022Z,-0.01
2018-02-22T07:11:15.026Z,0.05
2018-02-22T07:13:46.038Z,0.14
2018-02-22T07:16:17.032Z,0.31
2018-02-22T07:18:48.036Z,0.60
2018-02-22T07:21:19.077Z,0.81
2018-02-22T07:23:50.080Z,0.87
2018-02-22T07:26:21.118Z,0.99
2018-02-22T07:28:52.140Z,1.05
2018-02-22T07:31:23.109Z,0.99
2018-02-22T07:33:54.191Z,0.90
2018-02-22T07:36:25.212Z,1.07
2018-02-22T07:38:56.420Z,1.18
2018-02-22T07:41:27.485Z,0.97
2018-02-22T07:43:58.485Z,1.20
2018-02-22T07:46:29.496Z,1.56
2018-02-22T07:49:00.462Z,1.59
2018-02-22T07:51:31.473Z,1.59
2018-02-22T07:54:02.456Z,1.70
2018-02-22T07:56:33.512Z,1.75
2018-02-22T07:59:04.498Z,1.74
2018-02-22T08:01:35.557Z,1.49
2018-02-22T08:04:06.540Z,1.52
2018-02-22T08:06:37.547Z,1.43
2018-02-22T08:09:08.520Z,1.31
2018-02-22T08:11:39.524Z,1.28
2018-02-22T08:14:10.522Z,1.57
2018-02-22T08:16:41.596Z,1.75
2018-02-22T08:19:12.572Z,1.95
2018-02-22T08:21:43.667Z,2.24
2018-02-22T08:24:14.651Z,2.48
2018-02-22T08:26:45.666Z,2.65
2018-02-22T08:29:16.684Z,2.96
2018-02-22T08:31:47.727Z,2.89
2018-02-22T08:34:18.701Z,3.21
2018-02-22T08:36:49.774Z,3.43
2018-02-22T08:39:20.736Z,3.75
2018-02-22T08:41:51.754Z,3.78
2018-02-22T08:44:22.803Z,4.40
2018-02-22T08:46:53.870Z,4.69
2018-02-22T08:49:24.896Z,4.95
2018-02-22T08:51:55.902Z,6.44
2018-02-22T08:54:26.923Z,7.42
2018-02-22T08:56:57.951Z,8.62
2018-02-22T08:59:29.002Z,8.65
2018-02-22T09:01:59.961Z,8.07
2018-02-22T09:04:31.001Z,7.78
2018-02-22T09:07:02.005Z,8.63
2018-02-22T09:09:33.008Z,10.22
2018-02-22T09:12:04.007Z,10.11
2018-02-22T09:14:35.035Z,8.98
2018-02-22T09:17:06.040Z,7.48
2018-02-22T09:19:37.127Z,6.51
2018-02-22T09:22:08.129Z,5.79
2018-02-22T09:24:39.179Z,5.02
2018-02-22T09:27:10.127Z,4.67
2018-02-22T09:29:41.130Z,4.41
2018-02-22T09:32:12.197Z,4.29
2018-02-22T09:34:43.193Z,4.25
2018-02-22T09:37:14.197Z,4.41
2018-02-22T09:39:45.142Z,4.52
2018-02-22T09:42:16.195Z,4.24
2018-02-22T09:44:47.201Z,4.20
2018-02-22T09:47:18.197Z,4.23
2018-02-22T09:49:49.191Z,4.35
2018-02-22T09:52:20.230Z,4.77
2018-02-22T09:54:51.457Z,4.58
2018-02-22T09:57:22.588Z,5.23
2018-02-22T09:59:53.554Z,5.51
2018-02-22T10:02:24.605Z,5.99
2018-02-22T10:04:55.614Z,6.94
2018-02-22T10:07:26.645Z,7.67
2018-02-22T10:09:57.637Z,8.05
2018-02-22T10:12:28.685Z,8.33
2018-02-22T10:14:59.672Z,8.25
2018-02-22T10:17:30.688Z,8.51
2018-02-22T10:20:01.743Z,8.38
2018-02-22T10:22:32.736Z,7.94
2018-02-22T10:25:03.771Z,7.94
2018-02-22T10:27:34.750Z,7.59
2018-02-22T10:30:05.780Z,7.91
2018-02-22T10:32:36.721Z,8.39
2018-02-22T10:35:07.762Z,8.99
2018-02-22T10:37:38.756Z,9.40
2018-02-22T10:40:09.790Z,9.11
2018-02-22T10:42:40.856Z,8.90
2018-02-22T10:45:11.845Z,9.27
2018-02-22T10:47:42.885Z,9.13
2018-02-22T10:50:14.647Z,8.46
2018-02-22T10:52:45.626Z,7.93
2018-02-22T10:55:16.647Z,7.66
2018-02-22T10:57:47.644Z,7.23
2018-02-22T11:00:20.703Z,6.89
2018-02-22T11:02:51.720Z,6.48
2018-02-22T11:05:22.794Z,6.78
2018-02-22T11:07:53.785Z,7.00
2018-02-22T11:10:24.787Z,6.76
2018-02-22T11:12:55.739Z,7.05
2018-02-22T11:15:26.735Z,6.96
2018-02-22T11:17:57.757Z,7.09
2018-02-22T11:20:28.807Z,7.57
2018-02-22T11:22:59.782Z,8.61
2018-02-22T11:25:30.869Z,8.72
2018-02-22T11:28:01.913Z,8.59
2018-02-22T11:30:32.950Z,7.85
2018-02-22T11:33:04.000Z,7.77
2018-02-22T11:35:34.985Z,7.38
2018-02-22T11:38:06.053Z,7.34
2018-02-22T11:40:37.041Z,7.62
2018-02-22T11:43:08.072Z,7.91
2018-02-22T11:45:39.245Z,7.51
2018-02-22T11:48:10.273Z,7.34
2018-02-22T11:50:41.256Z,7.31
2018-02-22T11:53:12.297Z,7.05
2018-02-22T11:55:43.325Z,6.90
2018-02-22T11:58:14.401Z,6.91
2018-02-22T12:00:45.387Z,6.44
2018-02-22T12:03:16.405Z,6.60
2018-02-22T12:05:47.396Z,6.39
2018-02-22T12:08:18.413Z,6.44
2018-02-22T12:10:49.396Z,6.49
2018-02-22T12:13:20.445Z,6.78
2018-02-22T12:15:51.467Z,6.63
2018-02-22T12:18:22.593Z,6.57
2018-02-22T12:20:53.586Z,6.20
2018-02-22T12:23:24.634Z,5.95
2018-02-22T12:25:55.610Z,6.02
2018-02-22T12:28:26.662Z,5.85
2018-02-22T12:30:57.661Z,5.91
2018-02-22T12:33:28.714Z,5.79
2018-02-22T12:35:59.670Z,6.09
2018-02-22T12:38:30.718Z,6.49
2018-02-22T12:41:01.725Z,6.76
2018-02-22T12:43:32.748Z,7.20
2018-02-22T12:46:03.775Z,7.51
2018-02-22T12:48:34.784Z,6.90
2018-02-22T12:51:05.790Z,6.93
2018-02-22T12:53:43.664Z,6.89
2018-02-22T12:56:14.684Z,7.06
2018-02-22T12:58:45.683Z,7.27
2018-02-22T13:01:16.709Z,7.58
2018-02-22T13:03:47.762Z,7.70
2018-02-22T13:06:18.757Z,8.24
2018-02-22T13:08:49.819Z,8.47
2018-02-22T13:11:20.771Z,7.85
2018-02-22T13:13:51.803Z,7.27
2018-02-22T13:16:22.815Z,6.79
2018-02-22T13:18:53.904Z,6.66
2018-02-22T13:21:24.899Z,6.60
2018-02-22T13:23:55.973Z,6.66
2018-02-22T13:26:26.939Z,6.91
2018-02-22T13:28:57.935Z,6.77
2018-02-22T13:31:28.928Z,7.09
2018-02-22T13:34:12.385Z,6.99
2018-02-22T13:36:43.390Z,7.05
2018-02-22T13:39:14.520Z,7.27
2018-02-22T13:41:45.494Z,6.51
2018-02-22T13:44:28.753Z,6.55
2018-02-22T13:46:59.748Z,6.94
2018-02-22T13:49:43.129Z,6.58
2018-02-22T13:52:14.133Z,5.85
2018-02-22T13:54:45.189Z,5.80
2018-02-22T13:57:17.081Z,6.17
2018-02-22T13:59:48.176Z,6.08
2018-02-22T14:02:25.074Z,5.90
2018-02-22T14:04:56.130Z,6.06
2018-02-22T14:07:27.100Z,6.02
2018-02-22T14:09:58.116Z,5.88
2018-02-22T14:12:29.080Z,5.88
2018-02-22T14:15:00.123Z,5.61
2018-02-22T14:17:31.175Z,5.23
2018-02-22T14:20:02.215Z,5.04
2018-02-22T14:22:33.235Z,5.34
2018-02-22T14:25:04.195Z,5.47
2018-02-22T14:27:35.226Z,5.04
2018-02-22T14:30:06.256Z,4.52
2018-02-22T14:32:37.243Z,4.50
2018-02-22T14:35:08.264Z,4.22
2018-02-22T14:37:39.329Z,4.17
2018-02-22T14:40:10.373Z,4.13
2018-02-22T14:42:41.346Z,4.17
2018-02-22T14:45:12.369Z,4.06
2018-02-22T14:47:43.344Z,4.02
2018-02-22T14:50:14.391Z,4.00
2018-02-22T14:52:45.373Z,4.08
2018-02-22T14:55:16.461Z,4.05
2018-02-22T14:57:47.547Z,4.13
2018-02-22T15:00:18.525Z,4.04
2018-02-22T15:02:49.537Z,3.93
2018-02-22T15:05:20.491Z,3.84
2018-02-22T15:07:51.699Z,3.92
2018-02-22T15:10:22.723Z,4.03
2018-02-22T15:12:53.724Z,4.20
2018-02-22T15:15:24.739Z,4.12
2018-02-22T15:17:55.730Z,4.30
2018-02-22T15:20:26.731Z,4.19
2018-02-22T15:22:57.809Z,4.28
2018-02-22T15:25:28.772Z,4.23
2018-02-22T15:27:59.775Z,3.86
2018-02-22T15:30:30.786Z,3.92
2018-02-22T15:33:01.830Z,3.82
2018-02-22T15:35:32.795Z,3.68
2018-02-22T15:38:03.867Z,3.54
2018-02-22T15:40:34.840Z,3.53
2018-02-22T15:43:05.890Z,3.51
2018-02-22T15:45:36.851Z,3.57
2018-02-22T15:48:07.891Z,3.50
2018-02-22T15:50:38.847Z,3.44
2018-02-22T15:53:09.965Z,3.36
2018-02-22T15:55:40.963Z,3.31
2018-02-22T15:58:12.005Z,3.12
2018-02-22T16:00:42.990Z,3.18
2018-02-22T16:03:14.000Z,3.26
2018-02-22T16:05:45.073Z,3.23
2018-02-22T16:08:16.064Z,3.07
2018-02-22T16:10:47.118Z,3.06
2018-02-22T16:13:18.365Z,3.16
2018-02-22T16:15:49.347Z,3.16
2018-02-22T16:18:20.419Z,3.14
2018-02-22T16:20:51.380Z,3.01
2018-02-22T16:23:22.399Z,2.97
2018-02-22T16:25:53.419Z,2.95
2018-02-22T16:28:24.441Z,2.84
2018-02-22T16:30:55.424Z,2.67
2018-02-22T16:33:26.441Z,2.77
2018-02-22T16:35:57.455Z,2.88
2018-02-22T16:38:28.489Z,2.80
2018-02-22T16:40:59.585Z,2.79
2018-02-22T16:43:30.555Z,2.71
2018-02-22T16:46:01.573Z,2.52
2018-02-22T16:48:32.564Z,2.46
2018-02-22T16:51:03.560Z,2.57
2018-02-22T16:53:34.537Z,2.58
2018-02-22T16:56:05.600Z,2.50
2018-02-22T16:58:36.609Z,2.54
2018-02-22T17:01:07.624Z,2.55
2018-02-22T17:03:38.608Z,2.58
2018-02-22T17:06:09.654Z,2.45
2018-02-22T17:08:40.642Z,2.47
2018-02-22T17:11:11.699Z,2.59
2018-02-22T17:13:42.655Z,2.44
2018-02-22T17:16:13.665Z,2.39
2018-02-22T17:18:44.624Z,2.37
2018-02-22T17:21:15.642Z,2.35
2018-02-22T17:23:46.626Z,2.30
2018-02-22T17:26:23.693Z,2.31
2018-02-22T17:29:00.885Z,2.21
2018-02-22T17:31:38.005Z,2.20
2018-02-22T17:34:09.020Z,2.19
2018-02-22T17:36:51.168Z,2.18
2018-02-22T17:42:27.119Z,1.94
2018-02-22T17:44:58.105Z,1.99
2018-02-22T17:47:29.167Z,2.06
2018-02-22T17:50:00.238Z,2.16
2018-02-22T17:52:31.326Z,2.17
2018-02-22T17:55:02.336Z,2.22
2018-02-22T17:57:33.385Z,2.26
2018-02-22T18:00:04.448Z,2.16
2018-02-22T18:02:36.507Z,2.10
2018-02-22T18:05:07.641Z,2.09
2018-02-22T18:07:38.655Z,2.12
2018-02-22T18:10:09.640Z,2.09
2018-02-22T18:12:40.711Z,2.14
2018-02-22T18:15:11.692Z,2.17
2018-02-22T18:17:42.744Z,2.19
2018-02-22T18:20:13.750Z,2.25
2018-02-22T18:22:44.827Z,2.16
2018-02-22T18:25:15.866Z,2.06
2018-02-22T18:27:46.909Z,2.03
2018-02-22T18:30:17.946Z,1.96
2018-02-22T18:32:48.958Z,1.94
2018-02-22T18:35:20.069Z,1.95
2018-02-22T18:37:59.995Z,1.98
2018-02-22T18:40:37.268Z,2.05
2018-02-22T18:43:14.340Z,2.11
2018-02-22T18:45:45.412Z,2.13
2018-02-22T18:48:16.396Z,2.19
2018-02-22T18:50:47.433Z,2.20
2018-02-22T18:53:18.442Z,2.23
2018-02-22T18:55:49.476Z,2.30
2018-02-22T18:58:20.476Z,2.29
2018-02-22T19:00:51.528Z,2.20
2018-02-22T19:03:22.491Z,2.26
2018-02-22T19:05:53.586Z,2.27
2018-02-22T19:08:24.592Z,2.29
2018-02-22T19:10:55.600Z,2.33
2018-02-22T19:13:26.592Z,2.28
2018-02-22T19:15:57.640Z,2.30
2018-02-22T19:18:35.633Z,2.34
2018-02-22T19:21:06.683Z,2.35
2018-02-22T19:23:37.734Z,2.33
2018-02-22T19:26:08.668Z,2.27
2018-02-22T19:28:39.702Z,2.27
2018-02-22T19:31:10.658Z,2.25
2018-02-22T19:33:41.648Z,2.21
2018-02-22T19:36:12.666Z,2.20
2018-02-22T19:38:43.685Z,2.19
2018-02-22T19:41:14.817Z,2.12
2018-02-22T19:43:45.846Z,2.10
2018-02-22T19:46:16.792Z,2.04
2018-02-22T19:48:47.811Z,1.96
2018-02-22T19:51:18.802Z,1.97
2018-02-22T19:53:49.851Z,2.11
2018-02-22T19:56:20.852Z,2.21
2018-02-22T19:58:51.906Z,2.35
2018-02-22T20:01:22.915Z,2.43
2018-02-22T20:03:53.987Z,2.46
2018-02-22T20:06:24.998Z,2.36
2018-02-22T20:08:56.001Z,2.41
2018-02-22T20:11:26.975Z,2.39
2018-02-22T20:13:57.983Z,2.37
2018-02-22T20:16:29.026Z,2.32
2018-02-22T20:19:00.024Z,2.27
2018-02-22T20:21:31.010Z,2.15
2018-02-22T20:24:02.159Z,2.13
2018-02-22T20:26:33.143Z,2.04
2018-02-22T20:29:04.165Z,2.08
2018-02-22T20:31:35.180Z,2.15
2018-02-22T20:34:06.218Z,2.23
2018-02-22T20:36:37.222Z,2.36
2018-02-22T20:39:08.347Z,2.48
2018-02-22T20:41:39.369Z,2.47
2018-02-22T20:44:10.417Z,2.40
2018-02-22T20:46:41.479Z,2.37
2018-02-22T20:49:12.501Z,2.34
2018-02-22T20:51:57.591Z,2.34
2018-02-22T20:54:28.684Z,2.39
2018-02-22T20:56:59.648Z,2.37
2018-02-22T20:59:30.695Z,2.26
2018-02-22T21:02:01.718Z,2.22
2018-02-22T21:04:32.811Z,2.19
2018-02-22T21:07:03.839Z,2.23
2018-02-22T21:09:34.873Z,2.25
2018-02-22T21:12:05.938Z,2.15
2018-02-22T21:14:36.910Z,2.10
2018-02-22T21:17:07.952Z,2.20
2018-02-22T21:19:38.920Z,2.23
2018-02-22T21:22:09.962Z,2.20
2018-02-22T21:24:40.923Z,2.19
2018-02-22T21:27:11.908Z,2.18
2018-02-22T21:29:42.898Z,2.13
2018-02-22T21:32:13.930Z,2.03
2018-02-22T21:34:44.945Z,2.04
2018-02-22T21:37:15.950Z,1.90
2018-02-22T21:39:46.884Z,2.01
2018-02-22T21:42:17.879Z,2.07
2018-02-22T21:44:48.927Z,2.10
2018-02-22T21:47:19.924Z,2.12
2018-02-22T21:49:50.885Z,2.12
2018-02-22T21:52:21.883Z,2.18
2018-02-22T21:54:52.915Z,2.14
2018-02-22T21:57:23.963Z,2.12
2018-02-22T21:59:54.963Z,2.15
2018-02-22T22:02:25.989Z,2.12
2018-02-22T22:04:56.993Z,2.11
2018-02-22T22:07:28.044Z,2.17
2018-02-22T22:09:59.053Z,2.23
2018-02-22T22:12:30.075Z,2.23
2018-02-22T22:15:01.106Z,2.13
2018-02-22T22:17:32.132Z,2.11
2018-02-22T22:20:03.162Z,2.18
2018-02-22T22:22:34.207Z,2.23
2018-02-22T22:25:05.163Z,2.27
2018-02-22T22:27:36.233Z,2.19
2018-02-22T22:30:07.255Z,2.10
2018-02-22T22:32:38.292Z,2.18
2018-02-22T22:35:09.267Z,2.08
2018-02-22T22:37:40.334Z,2.02
2018-02-22T22:40:11.322Z,2.01
2018-02-22T22:42:42.331Z,1.96
2018-02-22T22:45:13.333Z,1.91
2018-02-22T22:47:44.394Z,1.99
2018-02-22T22:50:15.359Z,1.95
2018-02-22T22:52:46.479Z,1.91
2018-02-22T22:55:17.481Z,1.71
2018-02-22T22:57:48.499Z,1.66
2018-02-22T23:00:21.424Z,1.70
2018-02-22T23:02:52.498Z,1.80
2018-02-22T23:05:23.469Z,1.79
2018-02-22T23:07:54.519Z,1.86
2018-02-22T23:10:25.851Z,1.89
2018-02-22T23:12:56.864Z,1.91
2018-02-22T23:15:27.881Z,1.88
2018-02-22T23:17:58.911Z,1.89
2018-02-22T23:20:29.926Z,1.86
2018-02-22T23:23:00.989Z,1.88
2018-02-22T23:25:31.961Z,1.83
2018-02-22T23:28:03.018Z,1.79
2018-02-22T23:30:34.016Z,1.82
2018-02-22T23:33:05.089Z,1.91
2018-02-22T23:35:36.134Z,1.92
2018-02-22T23:38:07.164Z,1.79
2018-02-22T23:40:52.117Z,1.67
2018-02-22T23:43:23.132Z,1.56
2018-02-22T23:45:54.214Z,1.59
2018-02-22T23:48:25.207Z,1.49
2018-02-22T23:50:56.233Z,1.56
2018-02-22T23:53:27.214Z,1.54
2018-02-22T23:55:58.228Z,1.52
2018-02-22T23:58:29.207Z,1.42
